createdAt,value
2019-01-09T00:01:15.021Z,94535.27
2019-01-09T00:03:41.000Z,94537.33
2019-01-09T00:06:06.980Z,94526.97
2019-01-09T00:08:33.015Z,94523.52
2019-01-09T00:10:59.044Z,94509.79
2019-01-09T00:13:25.074Z,94507.92
2019-01-09T00:15:51.036Z,94510.20
2019-01-09T00:18:17.075Z,94512.45
2019-01-09T00:20:43.079Z,94512.04
2019-01-09T00:23:09.039Z,94512.13
2019-01-09T00:25:35.063Z,94515.33
2019-01-09T00:28:01.037Z,94509.47
2019-01-09T00:30:27.021Z,94509.68
2019-01-09T00:32:53.047Z,94514.41
2019-01-09T00:35:19.045Z,94526.16
2019-01-09T00:37:45.038Z,94521.16
2019-01-09T00:40:11.062Z,94521.66
2019-01-09T00:42:37.038Z,94530.23
2019-01-09T00:45:03.051Z,94520.33
2019-01-09T00:47:29.088Z,94524.50
2019-01-09T00:49:55.038Z,94523.39
2019-01-09T00:52:21.010Z,94515.72
2019-01-09T00:54:47.035Z,94511.11
2019-01-09T00:57:13.004Z,94512.94
2019-01-09T00:59:38.988Z,94517.84
2019-01-09T01:02:05.024Z,94513.86
2019-01-09T01:04:30.992Z,94511.19
2019-01-09T01:06:57.015Z,94512.94
2019-01-09T01:09:22.998Z,94517.34
2019-01-09T01:11:48.964Z,94519.59
2019-01-09T01:14:14.982Z,94531.28
2019-01-09T01:16:40.973Z,94524.62
2019-01-09T01:19:06.940Z,94523.70
2019-01-09T01:21:32.961Z,94522.97
2019-01-09T01:23:58.946Z,94518.62
2019-01-09T01:26:24.939Z,94516.14
2019-01-09T01:28:50.958Z,94523.30
2019-01-09T01:31:16.993Z,94515.31
2019-01-09T01:33:42.960Z,94511.41
2019-01-09T01:36:08.964Z,94516.52
2019-01-09T01:38:34.966Z,94514.06
2019-01-09T01:41:00.956Z,94514.98
2019-01-09T01:43:26.996Z,94513.98
2019-01-09T01:45:52.974Z,94506.30
2019-01-09T01:48:18.977Z,94512.14
2019-01-09T01:50:44.987Z,94504.25
2019-01-09T01:53:10.988Z,94500.67
2019-01-09T01:55:36.958Z,94499.55
2019-01-09T01:58:02.993Z,94493.00
2019-01-09T02:00:28.956Z,94493.82
2019-01-09T02:02:54.961Z,94486.75
2019-01-09T02:05:20.998Z,94489.83
2019-01-09T02:07:47.007Z,94492.48
2019-01-09T02:10:13.049Z,94497.91
2019-01-09T02:12:39.032Z,94490.45
2019-01-09T02:15:05.010Z,94482.47
2019-01-09T02:17:31.033Z,94484.22
2019-01-09T02:19:56.991Z,94472.74
2019-01-09T02:22:22.980Z,94479.69
2019-01-09T02:24:48.996Z,94474.15
2019-01-09T02:27:15.002Z,94468.34
2019-01-09T02:29:40.975Z,94473.57
2019-01-09T02:32:07.028Z,94472.03
2019-01-09T02:34:33.017Z,94468.41
2019-01-09T02:36:59.037Z,94464.95
2019-01-09T02:39:25.072Z,94459.64
2019-01-09T02:41:51.062Z,94453.99
2019-01-09T02:44:17.048Z,94455.52
2019-01-09T02:46:43.072Z,94453.99
2019-01-09T02:49:09.050Z,94456.98
2019-01-09T02:51:35.024Z,94444.37
2019-01-09T02:54:01.065Z,94441.42
2019-01-09T02:56:27.103Z,94440.47
2019-01-09T02:58:53.108Z,94440.29
2019-01-09T03:01:19.109Z,94436.60
2019-01-09T03:03:45.101Z,94435.15
2019-01-09T03:06:11.091Z,94435.88
2019-01-09T03:08:37.114Z,94434.16
2019-01-09T03:11:03.115Z,94435.88
2019-01-09T03:13:29.116Z,94438.34
2019-01-09T03:15:55.143Z,94433.53
2019-01-09T03:18:21.101Z,94434.36
2019-01-09T03:20:47.085Z,94433.12
2019-01-09T03:23:13.103Z,94429.13
2019-01-09T03:25:39.128Z,94428.12
2019-01-09T03:28:05.091Z,94424.22
2019-01-09T03:30:31.069Z,94425.74
2019-01-09T03:32:57.082Z,94422.37
2019-01-09T03:35:23.066Z,94410.50
2019-01-09T03:37:49.064Z,94409.80
2019-01-09T03:40:15.087Z,94410.08
2019-01-09T03:42:41.052Z,94404.87
2019-01-09T03:45:07.027Z,94403.83
2019-01-09T03:47:33.045Z,94401.59
2019-01-09T03:49:59.071Z,94396.69
2019-01-09T03:52:25.048Z,94397.09
2019-01-09T03:54:51.023Z,94409.99
2019-01-09T03:57:17.062Z,94409.70
2019-01-09T03:59:43.055Z,94408.38
2019-01-09T04:02:09.043Z,94393.73
2019-01-09T04:04:35.039Z,94393.11
2019-01-09T04:07:01.034Z,94389.62
2019-01-09T04:09:27.046Z,94388.20
2019-01-09T04:11:53.064Z,94395.86
2019-01-09T04:14:19.041Z,94391.36
2019-01-09T04:16:45.047Z,94386.14
2019-01-09T04:19:11.077Z,94386.26
2019-01-09T04:21:37.074Z,94388.80
2019-01-09T04:24:03.103Z,94382.05
2019-01-09T04:26:29.078Z,94387.25
2019-01-09T04:28:55.091Z,94388.50
2019-01-09T04:31:21.133Z,94387.16
2019-01-09T04:33:47.112Z,94381.64
2019-01-09T04:36:13.093Z,94386.05
2019-01-09T04:38:39.138Z,94376.73
2019-01-09T04:41:05.124Z,94381.83
2019-01-09T04:43:31.124Z,94377.23
2019-01-09T04:45:57.212Z,94373.78
2019-01-09T04:48:23.197Z,94374.58
2019-01-09T04:50:49.179Z,94370.58
2019-01-09T04:53:15.198Z,94376.81
2019-01-09T04:55:41.163Z,94372.03
2019-01-09T04:58:07.184Z,94361.39
2019-01-09T05:00:33.169Z,94365.47
2019-01-09T05:02:59.160Z,94362.41
2019-01-09T05:05:25.193Z,94373.17
2019-01-09T05:07:51.179Z,94370.38
2019-01-09T05:10:17.208Z,94358.95
2019-01-09T05:12:43.159Z,94359.23
2019-01-09T05:15:09.201Z,94358.82
2019-01-09T05:17:35.182Z,94363.73
2019-01-09T05:20:01.166Z,94359.45
2019-01-09T05:22:27.286Z,94356.09
2019-01-09T05:24:53.248Z,94340.53
2019-01-09T05:27:19.261Z,94345.52
2019-01-09T05:29:45.236Z,94343.20
2019-01-09T05:32:11.225Z,94347.89
2019-01-09T05:34:37.262Z,94335.94
2019-01-09T05:37:09.443Z,94340.53
2019-01-09T05:39:29.479Z,94333.19
2019-01-09T05:41:55.893Z,94330.40
2019-01-09T05:44:21.856Z,94323.05
2019-01-09T05:46:47.872Z,94319.69
2019-01-09T05:49:13.927Z,94320.81
2019-01-09T05:51:39.899Z,94308.94
2019-01-09T05:54:05.883Z,94309.28
2019-01-09T05:56:31.902Z,94305.70
2019-01-09T05:58:57.899Z,94309.28
2019-01-09T06:01:23.870Z,94309.16
2019-01-09T06:03:49.897Z,94306.63
2019-01-09T06:06:15.875Z,94311.12
2019-01-09T06:08:41.882Z,94309.28
2019-01-09T06:11:07.871Z,94309.28
2019-01-09T06:13:33.858Z,94308.87
2019-01-09T06:15:59.848Z,94304.05
2019-01-09T06:18:25.879Z,94301.39
2019-01-09T06:20:51.853Z,94305.60
2019-01-09T06:23:17.831Z,94307.75
2019-01-09T06:25:43.859Z,94309.59
2019-01-09T06:28:09.846Z,94296.41
2019-01-09T06:30:35.816Z,94297.75
2019-01-09T06:33:01.872Z,94297.96
2019-01-09T06:35:27.868Z,94296.22
2019-01-09T06:37:53.872Z,94289.48
2019-01-09T06:40:19.912Z,94289.06
2019-01-09T06:42:45.901Z,94291.81
2019-01-09T06:45:11.875Z,94286.63
2019-01-09T06:47:37.907Z,94289.16
2019-01-09T06:50:03.908Z,94282.41
2019-01-09T06:52:29.982Z,94287.32
2019-01-09T06:54:56.066Z,94287.41
2019-01-09T06:57:22.028Z,94291.02
2019-01-09T06:59:48.010Z,94291.41
2019-01-09T07:02:14.025Z,94288.23
2019-01-09T07:04:40.009Z,94291.41
2019-01-09T07:07:06.026Z,94300.63
2019-01-09T07:09:32.056Z,94295.39
2019-01-09T07:11:58.034Z,94290.80
2019-01-09T07:14:24.043Z,94284.64
2019-01-09T07:16:50.051Z,94282.20
2019-01-09T07:19:16.036Z,94282.98
2019-01-09T07:21:45.587Z,94283.31
2019-01-09T07:24:08.047Z,94290.66
2019-01-09T07:26:34.033Z,94296.37
2019-01-09T07:29:00.034Z,94288.28
2019-01-09T07:31:26.088Z,94293.19
2019-01-09T07:33:52.073Z,94296.90
2019-01-09T07:36:18.065Z,94289.73
2019-01-09T07:38:44.107Z,94291.36
2019-01-09T07:41:10.075Z,94298.52
2019-01-09T07:43:36.075Z,94293.92
2019-01-09T07:46:02.112Z,94279.17
2019-01-09T07:48:28.098Z,94282.75
2019-01-09T07:50:54.134Z,94298.30
2019-01-09T07:53:20.931Z,94297.09
2019-01-09T07:55:46.928Z,94298.81
2019-01-09T07:58:12.908Z,94289.59
2019-01-09T08:00:38.961Z,94297.91
2019-01-09T08:03:04.937Z,94302.50
2019-01-09T08:05:30.912Z,94290.34
2019-01-09T08:07:56.971Z,94285.74
2019-01-09T08:10:22.964Z,94279.80
2019-01-09T08:12:49.007Z,94280.08
2019-01-09T08:15:15.012Z,94279.42
2019-01-09T08:17:40.962Z,94278.82
2019-01-09T08:20:06.950Z,94284.14
2019-01-09T08:22:33.141Z,94286.30
2019-01-09T08:24:59.144Z,94290.70
2019-01-09T08:27:25.126Z,94285.42
2019-01-09T08:29:51.140Z,94279.24
2019-01-09T08:32:17.180Z,94279.44
2019-01-09T08:34:43.254Z,94293.30
2019-01-09T08:37:09.254Z,94298.80
2019-01-09T08:39:35.306Z,94288.52
2019-01-09T08:42:01.212Z,94297.64
2019-01-09T08:44:27.583Z,94295.61
2019-01-09T08:46:53.621Z,94293.30
2019-01-09T08:49:19.568Z,94293.17
2019-01-09T08:51:45.587Z,94290.86
2019-01-09T08:54:11.851Z,94286.55
2019-01-09T08:56:37.807Z,94282.05
2019-01-09T08:59:04.327Z,94283.88
2019-01-09T09:01:30.305Z,94292.59
2019-01-09T09:03:56.346Z,94286.86
2019-01-09T09:06:22.376Z,94276.72
2019-01-09T09:08:48.380Z,94271.91
2019-01-09T09:11:14.351Z,94265.16
2019-01-09T09:13:40.402Z,94261.86
2019-01-09T09:16:06.473Z,94269.94
2019-01-09T09:18:32.716Z,94268.52
2019-01-09T09:20:58.849Z,94269.14
2019-01-09T09:23:24.995Z,94261.06
2019-01-09T09:25:50.985Z,94254.54
2019-01-09T09:28:17.016Z,94237.17
2019-01-09T09:30:43.010Z,94236.45
2019-01-09T09:33:08.996Z,94231.53
2019-01-09T09:35:34.966Z,94227.55
2019-01-09T09:38:01.047Z,94226.75
2019-01-09T09:40:27.027Z,94236.86
2019-01-09T09:42:53.063Z,94236.16
2019-01-09T09:45:19.071Z,94235.11
2019-01-09T09:47:45.067Z,94230.74
2019-01-09T09:50:11.210Z,94226.63
2019-01-09T09:52:37.265Z,94218.36
2019-01-09T09:55:03.260Z,94215.57
2019-01-09T09:57:29.242Z,94204.83
2019-01-09T09:59:55.248Z,94204.13
2019-01-09T10:02:21.221Z,94205.05
2019-01-09T10:04:47.207Z,94201.47
2019-01-09T10:07:13.260Z,94202.80
2019-01-09T10:09:39.343Z,94196.75
2019-01-09T10:12:05.222Z,94207.94
2019-01-09T10:14:31.365Z,94207.11
2019-01-09T10:16:57.350Z,94197.80
2019-01-09T10:19:23.323Z,94196.59
2019-01-09T10:21:49.404Z,94195.36
2019-01-09T10:24:15.368Z,94198.14
2019-01-09T10:26:41.376Z,94197.20
2019-01-09T10:29:08.002Z,94194.95
2019-01-09T10:31:33.972Z,94192.41
2019-01-09T10:33:59.974Z,94193.84
2019-01-09T10:36:26.022Z,94193.05
2019-01-09T10:38:52.011Z,94190.77
2019-01-09T10:41:17.992Z,94183.73
2019-01-09T10:43:44.037Z,94186.27
2019-01-09T10:46:10.019Z,94176.13
2019-01-09T10:48:35.993Z,94178.91
2019-01-09T10:51:02.023Z,94171.98
2019-01-09T10:53:28.029Z,94170.66
2019-01-09T10:55:54.019Z,94164.51
2019-01-09T10:58:20.044Z,94151.61
2019-01-09T11:00:46.034Z,94145.47
2019-01-09T11:03:12.020Z,94140.66
2019-01-09T11:05:38.100Z,94132.80
2019-01-09T11:08:04.069Z,94126.44
2019-01-09T11:10:30.059Z,94124.00
2019-01-09T11:12:56.098Z,94115.51
2019-01-09T11:15:22.082Z,94122.16
2019-01-09T11:17:48.067Z,94119.22
2019-01-09T11:20:14.075Z,94115.73
2019-01-09T11:22:40.073Z,94102.43
2019-01-09T11:25:06.045Z,94091.50
2019-01-09T11:27:32.086Z,94090.55
2019-01-09T11:29:58.057Z,94082.06
2019-01-09T11:32:24.041Z,94078.58
2019-01-09T11:34:50.052Z,94072.25
2019-01-09T11:37:16.036Z,94063.86
2019-01-09T11:39:42.023Z,94063.16
2019-01-09T11:42:08.068Z,94063.58
2019-01-09T11:44:34.034Z,94061.01
2019-01-09T11:47:00.022Z,94047.80
2019-01-09T11:49:26.073Z,94042.48
2019-01-09T11:51:52.070Z,94046.79
2019-01-09T11:54:18.056Z,94041.98
2019-01-09T11:56:44.084Z,94037.17
2019-01-09T11:59:10.057Z,94035.96
2019-01-09T12:01:36.043Z,94026.24
2019-01-09T12:04:02.061Z,94018.27
2019-01-09T12:06:28.087Z,94022.25
2019-01-09T12:08:54.092Z,94017.44
2019-01-09T12:11:20.097Z,94014.78
2019-01-09T12:13:46.088Z,94010.28
2019-01-09T12:16:12.052Z,94007.34
2019-01-09T12:18:38.091Z,94003.86
2019-01-09T12:21:04.089Z,94004.68
2019-01-09T12:23:30.091Z,93994.83
2019-01-09T12:25:56.127Z,93995.87
2019-01-09T12:28:22.103Z,93988.30
2019-01-09T12:30:48.082Z,93986.47
2019-01-09T12:33:14.135Z,93978.59
2019-01-09T12:35:40.127Z,93979.63
2019-01-09T12:38:06.111Z,93982.70
2019-01-09T12:40:32.148Z,93977.38
2019-01-09T12:42:58.109Z,93980.14
2019-01-09T12:45:24.155Z,93978.94
2019-01-09T12:47:50.172Z,93976.97
2019-01-09T12:50:16.157Z,93971.24
2019-01-09T12:52:42.164Z,93966.84
2019-01-09T12:55:08.186Z,93953.26
2019-01-09T12:57:34.167Z,93949.14
2019-01-09T13:00:00.175Z,93946.20
2019-01-09T13:02:26.202Z,93950.29
2019-01-09T13:04:52.185Z,93948.04
2019-01-09T13:07:18.152Z,93948.73
2019-01-09T13:09:44.208Z,93947.94
2019-01-09T13:12:10.194Z,93942.20
2019-01-09T13:14:36.185Z,93944.59
2019-01-09T13:17:02.244Z,93950.00
2019-01-09T13:19:28.198Z,93943.95
2019-01-09T13:21:54.170Z,93941.52
2019-01-09T13:24:20.215Z,93936.98
2019-01-09T13:26:46.201Z,93945.09
2019-01-09T13:29:12.217Z,93947.63
2019-01-09T13:31:38.203Z,93946.52
2019-01-09T13:34:04.185Z,93944.27
2019-01-09T13:36:30.208Z,93941.11
2019-01-09T13:38:56.200Z,93944.27
2019-01-09T13:41:22.194Z,93941.52
2019-01-09T13:43:48.227Z,93934.68
2019-01-09T13:46:14.194Z,93936.42
2019-01-09T13:48:40.159Z,93936.02
2019-01-09T13:51:06.180Z,93933.86
2019-01-09T13:53:32.168Z,93928.54
2019-01-09T13:55:58.128Z,93930.41
2019-01-09T13:58:24.160Z,93932.94
2019-01-09T14:00:50.161Z,93924.55
2019-01-09T14:03:16.135Z,93922.72
2019-01-09T14:05:42.172Z,93908.72
2019-01-09T14:08:08.152Z,93902.99
2019-01-09T14:10:34.134Z,93899.28
2019-01-09T14:13:00.154Z,93895.84
2019-01-09T14:15:26.192Z,93894.09
2019-01-09T14:17:52.110Z,93892.63
2019-01-09T14:20:18.131Z,93892.36
2019-01-09T14:22:44.115Z,93890.11
2019-01-09T14:25:10.154Z,93887.03
2019-01-09T14:27:36.180Z,93886.22
2019-01-09T14:30:02.179Z,93887.55
2019-01-09T14:32:28.170Z,93883.14
2019-01-09T14:34:54.206Z,93885.42
2019-01-09T14:37:20.179Z,93884.47
2019-01-09T14:39:48.131Z,93880.20
2019-01-09T14:42:12.177Z,93878.37
2019-01-09T14:44:38.191Z,93871.72
2019-01-09T14:47:04.219Z,93873.05
2019-01-09T14:49:30.432Z,93867.83
2019-01-09T14:51:56.423Z,93873.55
2019-01-09T14:54:22.398Z,93872.63
2019-01-09T14:56:48.471Z,93877.55
2019-01-09T14:59:14.456Z,93879.80
2019-01-09T15:01:40.433Z,93876.34
2019-01-09T15:04:06.496Z,93878.47
2019-01-09T15:06:32.469Z,93886.03
2019-01-09T15:08:58.439Z,93883.91
2019-01-09T15:11:24.479Z,93879.52
2019-01-09T15:13:50.470Z,93882.17
2019-01-09T15:16:16.460Z,93882.58
2019-01-09T15:18:42.510Z,93884.14
2019-01-09T15:21:08.472Z,93876.16
2019-01-09T15:23:34.486Z,93885.05
2019-01-09T15:26:00.476Z,93881.06
2019-01-09T15:28:26.496Z,93885.88
2019-01-09T15:30:52.602Z,93879.83
2019-01-09T15:33:18.587Z,93878.22
2019-01-09T15:35:44.697Z,93886.10
2019-01-09T15:38:10.601Z,93887.94
2019-01-09T15:40:36.593Z,93884.59
2019-01-09T15:43:02.635Z,93887.66
2019-01-09T15:45:28.612Z,93883.27
2019-01-09T15:47:54.595Z,93885.00
2019-01-09T15:50:20.604Z,93882.03
2019-01-09T15:52:46.587Z,93883.36
2019-01-09T15:55:12.579Z,93880.83
2019-01-09T15:57:38.620Z,93880.41
2019-01-09T16:00:04.632Z,93876.94
2019-01-09T16:02:30.610Z,93877.34
2019-01-09T16:04:56.668Z,93867.22
2019-01-09T16:07:22.663Z,93868.14
2019-01-09T16:09:48.651Z,93862.62
2019-01-09T16:12:14.685Z,93859.42
2019-01-09T16:14:40.684Z,93848.51
2019-01-09T16:17:06.671Z,93848.61
2019-01-09T16:19:32.729Z,93831.32
2019-01-09T16:21:58.692Z,93829.58
2019-01-09T16:24:24.678Z,93830.13
2019-01-09T16:26:50.711Z,93827.05
2019-01-09T16:29:16.771Z,93822.66
2019-01-09T16:31:42.708Z,93816.92
2019-01-09T16:34:08.737Z,93822.78
2019-01-09T16:36:34.748Z,93811.20
2019-01-09T16:39:00.766Z,93813.06
2019-01-09T16:41:26.909Z,93810.63
2019-01-09T16:43:52.877Z,93802.11
2019-01-09T16:46:18.904Z,93793.86
2019-01-09T16:48:45.007Z,93796.11
2019-01-09T16:51:11.083Z,93791.10
2019-01-09T16:53:37.091Z,93790.47
2019-01-09T16:56:03.151Z,93791.66
2019-01-09T16:58:29.220Z,93789.41
2019-01-09T17:00:55.221Z,93787.16
2019-01-09T17:03:21.248Z,93778.14
2019-01-09T17:05:47.373Z,93775.89
2019-01-09T17:08:13.349Z,93780.93
2019-01-09T17:10:41.871Z,93781.34
2019-01-09T17:13:07.867Z,93764.66
2019-01-09T17:15:33.919Z,93766.72
2019-01-09T17:17:59.899Z,93776.53
2019-01-09T17:20:25.879Z,93767.73
2019-01-09T17:22:51.937Z,93760.58
2019-01-09T17:25:17.903Z,93764.56
2019-01-09T17:27:43.915Z,93763.74
2019-01-09T17:30:09.951Z,93761.63
2019-01-09T17:32:35.921Z,93754.44
2019-01-09T17:35:02.721Z,93753.11
2019-01-09T17:37:29.774Z,93751.78
2019-01-09T17:39:56.616Z,93747.09
2019-01-09T17:42:23.211Z,93757.00
2019-01-09T17:44:49.809Z,93754.11
2019-01-09T17:47:16.537Z,93756.03
2019-01-09T17:49:43.171Z,93752.73
2019-01-09T17:52:10.650Z,93755.95
2019-01-09T17:54:37.167Z,93752.91
2019-01-09T17:57:03.294Z,93752.96
2019-01-09T17:59:29.930Z,93752.73
2019-01-09T18:01:56.569Z,93743.94
2019-01-09T18:04:26.743Z,93750.17
2019-01-09T18:06:54.266Z,93746.67
2019-01-09T18:09:21.096Z,93743.02
2019-01-09T18:11:47.133Z,93749.02
2019-01-09T18:14:13.132Z,93743.30
2019-01-09T18:16:39.116Z,93746.95
2019-01-09T18:19:05.145Z,93741.23
2019-01-09T18:21:31.171Z,93734.86
2019-01-09T18:23:57.170Z,93731.50
2019-01-09T18:26:23.238Z,93740.48
2019-01-09T18:28:49.294Z,93742.05
2019-01-09T18:31:15.295Z,93743.37
2019-01-09T18:33:41.348Z,93738.33
2019-01-09T18:36:07.320Z,93735.58
2019-01-09T18:38:33.344Z,93739.02
2019-01-09T18:41:00.265Z,93737.05
2019-01-09T18:43:25.387Z,93737.19
2019-01-09T18:45:51.392Z,93733.52
2019-01-09T18:48:17.407Z,93738.00
2019-01-09T18:50:43.405Z,93736.13
2019-01-09T18:53:09.395Z,93738.80
2019-01-09T18:55:35.418Z,93748.41
2019-01-09T18:58:01.726Z,93746.27
2019-01-09T19:00:27.713Z,93747.36
2019-01-09T19:02:54.016Z,93743.66
2019-01-09T19:05:19.985Z,93743.32
2019-01-09T19:07:45.976Z,93741.13
2019-01-09T19:10:12.010Z,93738.97
2019-01-09T19:12:37.983Z,93736.62
2019-01-09T19:15:03.975Z,93739.15
2019-01-09T19:17:30.587Z,93734.47
2019-01-09T19:19:56.564Z,93745.02
2019-01-09T19:22:22.568Z,93740.48
2019-01-09T19:24:48.594Z,93744.59
2019-01-09T19:27:14.578Z,93742.86
2019-01-09T19:29:40.566Z,93737.95
2019-01-09T19:32:06.675Z,93740.20
2019-01-09T19:34:32.681Z,93738.36
2019-01-09T19:36:58.667Z,93742.17
2019-01-09T19:39:25.094Z,93734.37
2019-01-09T19:41:51.075Z,93728.23
2019-01-09T19:44:19.031Z,93727.64
2019-01-09T19:46:43.149Z,93730.71
2019-01-09T19:49:09.158Z,93730.02
2019-01-09T19:51:36.250Z,93731.77
2019-01-09T19:54:02.296Z,93730.66
2019-01-09T19:56:28.366Z,93731.08
2019-01-09T19:58:54.331Z,93740.77
2019-01-09T20:01:20.339Z,93736.49
2019-01-09T20:03:46.322Z,93744.98
2019-01-09T20:06:12.302Z,93737.55
2019-01-09T20:08:38.470Z,93729.16
2019-01-09T20:11:04.546Z,93734.47
2019-01-09T20:13:30.604Z,93735.39
2019-01-09T20:15:56.532Z,93734.58
2019-01-09T20:18:22.511Z,93732.45
2019-01-09T20:20:48.638Z,93737.23
2019-01-09T20:23:14.706Z,93734.88
2019-01-09T20:25:40.697Z,93739.38
2019-01-09T20:28:06.691Z,93743.55
2019-01-09T20:30:32.748Z,93737.59
2019-01-09T20:32:58.748Z,93744.66
2019-01-09T20:35:24.803Z,93739.33
2019-01-09T20:37:51.323Z,93744.14
2019-01-09T20:40:17.292Z,93738.97
2019-01-09T20:42:43.270Z,93742.45
2019-01-09T20:45:09.384Z,93742.73
2019-01-09T20:47:35.427Z,93745.05
2019-01-09T20:50:01.380Z,93743.59
2019-01-09T20:52:28.319Z,93743.73
2019-01-09T20:54:54.906Z,93742.80
2019-01-09T20:57:21.845Z,93745.88
2019-01-09T20:59:48.176Z,93732.95
2019-01-09T21:02:14.686Z,93739.73
2019-01-09T21:04:42.036Z,93732.58
2019-01-09T21:07:08.812Z,93736.25
2019-01-09T21:09:35.289Z,93738.58
2019-01-09T21:12:01.246Z,93742.98
2019-01-09T21:14:27.242Z,93741.66
2019-01-09T21:16:53.260Z,93739.78
2019-01-09T21:19:19.256Z,93735.38
2019-01-09T21:21:45.337Z,93734.92
2019-01-09T21:24:11.317Z,93734.13
2019-01-09T21:26:37.384Z,93734.64
2019-01-09T21:29:03.636Z,93724.12
2019-01-09T21:31:29.622Z,93723.82
2019-01-09T21:33:55.643Z,93721.57
2019-01-09T21:36:21.621Z,93726.15
2019-01-09T21:38:47.594Z,93722.16
2019-01-09T21:41:13.614Z,93717.86
2019-01-09T21:43:39.589Z,93724.92
2019-01-09T21:46:05.603Z,93727.17
2019-01-09T21:48:31.593Z,93728.81
2019-01-09T21:50:57.589Z,93725.23
2019-01-09T21:53:23.618Z,93726.43
2019-01-09T21:55:49.586Z,93735.73
2019-01-09T21:58:15.638Z,93730.83
2019-01-09T22:00:41.593Z,93732.03
2019-01-09T22:03:07.579Z,93727.25
2019-01-09T22:05:33.593Z,93726.02
2019-01-09T22:07:59.561Z,93728.45
2019-01-09T22:10:25.573Z,93721.38
2019-01-09T22:12:51.565Z,93724.59
2019-01-09T22:15:17.531Z,93725.79
2019-01-09T22:17:43.543Z,93724.36
2019-01-09T22:20:09.583Z,93729.68
2019-01-09T22:22:35.582Z,93730.19
2019-01-09T22:25:01.565Z,93732.44
2019-01-09T22:27:27.612Z,93731.11
2019-01-09T22:29:53.600Z,93725.97
2019-01-09T22:32:19.588Z,93731.41
2019-01-09T22:34:45.618Z,93730.77
2019-01-09T22:37:11.603Z,93734.63
2019-01-09T22:39:37.579Z,93729.13
2019-01-09T22:42:11.542Z,93740.31
2019-01-09T22:44:29.566Z,93738.06
2019-01-09T22:46:55.553Z,93735.51
2019-01-09T22:49:21.580Z,93741.75
2019-01-09T22:51:47.561Z,93734.31
2019-01-09T22:54:13.528Z,93746.16
2019-01-09T22:56:39.543Z,93746.05
2019-01-09T22:59:05.545Z,93744.41
2019-01-09T23:01:31.520Z,93748.41
2019-01-09T23:03:57.767Z,93750.37
2019-01-09T23:06:23.791Z,93753.31
2019-01-09T23:08:49.755Z,93754.64
2019-01-09T23:11:15.789Z,93747.61
2019-01-09T23:13:41.769Z,93749.45
2019-01-09T23:16:07.806Z,93745.46
2019-01-09T23:18:33.841Z,93737.89
2019-01-09T23:20:59.807Z,93729.09
2019-01-09T23:23:25.811Z,93730.01
2019-01-09T23:25:51.843Z,93731.88
2019-01-09T23:28:17.827Z,93733.59
2019-01-09T23:30:43.813Z,93737.20
2019-01-09T23:33:09.815Z,93734.13
2019-01-09T23:35:35.788Z,93739.86
2019-01-09T23:38:01.764Z,93731.47
2019-01-09T23:40:27.808Z,93724.82
2019-01-09T23:42:53.779Z,93731.06
2019-01-09T23:45:19.794Z,93728.91
2019-01-09T23:47:45.785Z,93729.22
2019-01-09T23:50:11.776Z,93734.13
2019-01-09T23:52:37.780Z,93734.64
2019-01-09T23:55:03.762Z,93735.87
2019-01-09T23:57:29.768Z,93739.96
2019-01-09T23:59:55.790Z,93734.64
